Airport View

Enter AWOS ICAO identifier for current METAR.

ex. KFNL

KCUL 202355Z AUTO 17004KT 10SM CLR 25/21 A3012 RMK AO2

21 Sep 2019 00:25

Frequency: 118.425

Phone: 618-382-3760

Other Area AWOS: KFWC - KHSB - KEHR - KEVV

TAF KEVV 202331Z 2100/2124 19004KT P6SM BKN150 FM211500 20012G19KT P6SM BKN150